createdAt,value
2022-10-13T00:01:13.007Z,101937.31
2022-10-13T00:03:40.929Z,101943.31
2022-10-13T00:13:30.155Z,101927.59
2022-10-13T00:15:56.673Z,101928.59
2022-10-13T00:18:23.190Z,101923.19
2022-10-13T00:20:50.264Z,101926.88
2022-10-13T00:23:17.383Z,101925.31
2022-10-13T00:25:45.747Z,101924.59
2022-10-13T00:28:14.804Z,101923.63
2022-10-13T00:30:41.564Z,101925.44
2022-10-13T00:33:09.518Z,101931.88
2022-10-13T00:35:42.022Z,101919.63
2022-10-13T00:38:08.553Z,101922.88
2022-10-13T00:40:45.473Z,101926.03
2022-10-13T00:43:26.975Z,101929.72
2022-10-13T00:45:54.062Z,101918.16
2022-10-13T00:48:25.895Z,101925.31
2022-10-13T00:50:53.028Z,101921.03
2022-10-13T00:53:22.462Z,101915.88
2022-10-13T00:55:49.767Z,101914.31
2022-10-13T00:58:19.421Z,101912.63
2022-10-13T01:00:48.669Z,101906.19
2022-10-13T01:03:15.265Z,101905.47
2022-10-13T01:05:42.480Z,101901.03
2022-10-13T01:08:10.230Z,101905.47
2022-10-13T01:10:42.545Z,101905.56
2022-10-13T01:13:20.898Z,101899.59
2022-10-13T01:16:00.282Z,101895.28
2022-10-13T01:18:37.945Z,101892.59
2022-10-13T01:21:31.389Z,101894.44
2022-10-13T01:24:04.272Z,101887.31
2022-10-13T01:26:47.467Z,101884.75
2022-10-13T01:33:00.466Z,101879.75
2022-10-13T01:35:48.503Z,101878.75
2022-10-13T01:38:30.231Z,101878.75
2022-10-13T01:41:02.429Z,101879.75
2022-10-13T01:43:32.143Z,101877.03
2022-10-13T01:46:12.706Z,101873.31
2022-10-13T01:48:40.603Z,101876.16
2022-10-13T01:51:10.430Z,101877.31
2022-10-13T01:53:37.192Z,101876.59
2022-10-13T01:56:03.837Z,101877.59
2022-10-13T01:58:32.384Z,101880.44
2022-10-13T02:01:01.901Z,101879.00
2022-10-13T02:03:45.019Z,101882.16
2022-10-13T02:06:14.492Z,101879.13
2022-10-13T02:09:03.415Z,101879.28
2022-10-13T02:11:30.065Z,101878.41
2022-10-13T02:14:11.553Z,101881.84
2022-10-13T02:16:44.455Z,101888.84
2022-10-13T02:19:14.741Z,101881.56
2022-10-13T02:21:42.293Z,101883.53
2022-10-13T02:24:09.110Z,101883.84
2022-10-13T02:26:36.567Z,101883.25
2022-10-13T02:29:15.429Z,101889.81
2022-10-13T02:31:43.762Z,101882.81
2022-10-13T02:34:10.663Z,101886.50
2022-10-13T02:36:40.107Z,101886.25
2022-10-13T02:39:08.224Z,101876.84
2022-10-13T02:41:34.840Z,101885.13
2022-10-13T02:44:01.450Z,101888.97
2022-10-13T02:46:27.982Z,101877.53
2022-10-13T02:48:54.518Z,101874.97
2022-10-13T02:51:21.008Z,101874.38
2022-10-13T02:53:47.521Z,101877.38
2022-10-13T02:56:14.047Z,101876.34
2022-10-13T02:58:40.584Z,101878.09
2022-10-13T03:01:09.483Z,101870.69
2022-10-13T03:03:36.746Z,101869.53
2022-10-13T03:06:03.787Z,101861.88
2022-10-13T03:08:32.028Z,101865.00
2022-10-13T03:10:58.634Z,101874.44
2022-10-13T03:13:25.191Z,101872.16
2022-10-13T03:15:51.697Z,101867.31
2022-10-13T03:18:18.278Z,101866.78
2022-10-13T03:20:44.917Z,101873.88
2022-10-13T03:23:11.401Z,101870.19
2022-10-13T03:25:38.340Z,101869.19
2022-10-13T03:28:04.938Z,101871.88
2022-10-13T03:30:31.480Z,101866.63
2022-10-13T03:32:58.207Z,101857.63
2022-10-13T03:35:24.790Z,101860.19
2022-10-13T03:37:51.297Z,101852.22
2022-10-13T03:40:17.906Z,101856.78
2022-10-13T03:42:44.422Z,101854.50
2022-10-13T03:45:11.339Z,101851.06
2022-10-13T03:47:37.928Z,101851.34
2022-10-13T03:50:05.851Z,101846.22
2022-10-13T03:52:32.426Z,101848.22
2022-10-13T03:54:58.952Z,101844.78
2022-10-13T03:57:25.595Z,101839.78
2022-10-13T03:59:52.117Z,101842.75
2022-10-13T04:02:18.913Z,101842.47
2022-10-13T04:04:45.639Z,101844.75
2022-10-13T04:07:12.380Z,101850.72
2022-10-13T04:09:38.912Z,101849.53
2022-10-13T04:12:05.480Z,101848.25
2022-10-13T04:14:32.128Z,101856.50
2022-10-13T04:16:58.697Z,101863.91
2022-10-13T04:19:25.449Z,101865.75
2022-10-13T04:21:51.986Z,101858.91
2022-10-13T04:24:18.520Z,101862.88
2022-10-13T04:26:46.304Z,101859.56
2022-10-13T04:29:12.950Z,101854.44
2022-10-13T04:31:42.718Z,101861.94
2022-10-13T04:34:09.727Z,101859.34
2022-10-13T04:36:36.255Z,101857.38
2022-10-13T04:39:02.948Z,101864.50
2022-10-13T04:41:29.490Z,101858.22
2022-10-13T04:43:56.068Z,101852.97
2022-10-13T04:46:25.512Z,101857.50
2022-10-13T04:48:52.622Z,101838.84
2022-10-13T04:51:21.281Z,101852.78
2022-10-13T04:53:48.452Z,101853.03
2022-10-13T04:56:17.031Z,101852.31
2022-10-13T04:58:45.617Z,101852.59
2022-10-13T05:01:20.506Z,101852.84
2022-10-13T05:03:57.796Z,101850.44
2022-10-13T05:06:26.883Z,101848.97
2022-10-13T05:08:53.426Z,101847.53
2022-10-13T05:11:20.616Z,101854.91
2022-10-13T05:13:48.256Z,101852.34
2022-10-13T05:16:17.144Z,101851.63
2022-10-13T05:18:43.925Z,101850.88
2022-10-13T05:21:13.590Z,101847.34
2022-10-13T05:23:40.812Z,101851.06
2022-10-13T05:26:12.578Z,101840.34
2022-10-13T05:28:39.278Z,101852.03
2022-10-13T05:31:25.370Z,101850.31
2022-10-13T05:33:52.557Z,101846.91
2022-10-13T05:36:21.534Z,101855.84
2022-10-13T05:38:56.507Z,101852.31
2022-10-13T05:41:25.145Z,101856.72
2022-10-13T05:43:54.469Z,101852.31
2022-10-13T05:46:21.211Z,101848.88
2022-10-13T05:48:47.721Z,101857.72
2022-10-13T05:51:17.168Z,101852.31
2022-10-13T05:53:51.109Z,101850.44
2022-10-13T05:56:24.084Z,101848.59
2022-10-13T05:58:53.577Z,101845.03
2022-10-13T06:01:23.367Z,101849.31
2022-10-13T06:03:51.094Z,101860.00
2022-10-13T06:06:17.718Z,101859.16
2022-10-13T06:08:44.362Z,101860.75
2022-10-13T06:11:10.866Z,101847.09
2022-10-13T06:13:37.378Z,101859.47
2022-10-13T06:16:05.782Z,101849.25
2022-10-13T06:18:32.317Z,101857.09
2022-10-13T06:20:58.852Z,101851.41
2022-10-13T06:23:25.404Z,101852.84
2022-10-13T06:25:52.792Z,101858.00
2022-10-13T06:28:20.483Z,101865.84
2022-10-13T06:30:53.375Z,101865.59
2022-10-13T06:33:20.849Z,101861.75
2022-10-13T06:35:47.332Z,101869.59
2022-10-13T06:38:13.853Z,101867.47
2022-10-13T06:40:40.390Z,101876.81
2022-10-13T06:43:07.089Z,101874.56
2022-10-13T06:45:33.633Z,101885.13
2022-10-13T06:48:00.719Z,101886.81
2022-10-13T06:50:27.381Z,101887.53
2022-10-13T06:52:55.724Z,101890.97
2022-10-13T06:55:22.305Z,101891.69
2022-10-13T06:57:48.892Z,101895.84
2022-10-13T07:00:15.712Z,101894.69
2022-10-13T07:02:42.183Z,101887.91
2022-10-13T07:05:08.963Z,101895.19
2022-10-13T07:07:35.589Z,101888.97
2022-10-13T07:10:02.141Z,101895.38
2022-10-13T07:12:28.702Z,101893.69
2022-10-13T07:14:55.264Z,101890.31
2022-10-13T07:17:21.976Z,101888.72
2022-10-13T07:19:49.245Z,101893.28
2022-10-13T07:22:16.379Z,101897.22
2022-10-13T07:24:43.283Z,101903.63
2022-10-13T07:27:10.157Z,101893.66
2022-10-13T07:29:36.820Z,101899.94
2022-10-13T07:32:03.458Z,101894.78
2022-10-13T07:34:29.966Z,101898.50
2022-10-13T07:36:56.941Z,101896.91
2022-10-13T07:39:23.494Z,101895.47
2022-10-13T07:41:51.192Z,101902.91
2022-10-13T07:44:18.252Z,101896.72
2022-10-13T07:46:44.827Z,101897.72
2022-10-13T07:49:13.786Z,101886.97
2022-10-13T07:51:43.180Z,101882.41
2022-10-13T07:54:10.015Z,101884.25
2022-10-13T07:56:36.540Z,101879.75
2022-10-13T07:59:05.249Z,101889.56
2022-10-13T08:01:32.145Z,101888.97
2022-10-13T08:03:59.439Z,101889.09
2022-10-13T08:06:26.410Z,101887.47
2022-10-13T08:08:53.228Z,101892.16
2022-10-13T08:11:19.984Z,101879.66
2022-10-13T08:13:50.867Z,101887.59
2022-10-13T08:16:18.120Z,101894.00
2022-10-13T08:18:45.329Z,101888.34
2022-10-13T08:24:08.018Z,101885.25
2022-10-13T08:26:34.539Z,101884.69
2022-10-13T08:34:19.167Z,101884.50
2022-10-13T08:36:45.863Z,101886.50
2022-10-13T08:39:12.898Z,101877.72
2022-10-13T08:41:43.749Z,101873.84
2022-10-13T08:47:13.134Z,101869.03
2022-10-13T08:49:41.209Z,101873.50
2022-10-13T08:52:16.840Z,101869.59
2022-10-13T08:54:43.422Z,101871.13
2022-10-13T08:57:10.765Z,101869.44
2022-10-13T08:59:37.341Z,101880.34
2022-10-13T09:02:14.789Z,101875.88
2022-10-13T09:04:44.371Z,101875.88
2022-10-13T09:07:33.159Z,101871.47
2022-10-13T09:09:59.645Z,101867.91
2022-10-13T09:12:26.615Z,101864.81
2022-10-13T09:15:03.026Z,101855.47
2022-10-13T09:17:29.944Z,101856.81
2022-10-13T09:20:23.230Z,101858.56
2022-10-13T09:23:06.152Z,101856.34
2022-10-13T09:25:41.523Z,101856.22
2022-10-13T09:28:17.743Z,101850.09
2022-10-13T09:30:48.667Z,101852.63
2022-10-13T09:33:24.136Z,101851.78
2022-10-13T09:35:56.541Z,101838.47
2022-10-13T09:38:25.290Z,101839.69
2022-10-13T09:41:04.742Z,101845.31
2022-10-13T09:43:35.765Z,101853.69
2022-10-13T09:46:10.700Z,101843.44
2022-10-13T09:48:38.105Z,101851.97
2022-10-13T09:51:04.671Z,101848.91
2022-10-13T09:53:35.107Z,101850.25
2022-10-13T09:56:10.443Z,101849.75
2022-10-13T10:01:20.197Z,101858.78
2022-10-13T10:03:47.584Z,101860.50
2022-10-13T10:06:16.011Z,101853.84
2022-10-13T10:09:04.601Z,101863.03
2022-10-13T10:11:43.564Z,101860.97
2022-10-13T10:14:23.647Z,101850.06
2022-10-13T10:17:33.242Z,101856.22
2022-10-13T10:20:18.043Z,101854.84
2022-10-13T10:22:53.003Z,101852.63
2022-10-13T10:25:30.242Z,101847.00
2022-10-13T10:28:24.687Z,101844.09
2022-10-13T10:30:57.805Z,101844.94
2022-10-13T10:33:42.143Z,101839.50
2022-10-13T10:36:17.022Z,101842.22
2022-10-13T10:39:11.556Z,101837.44
2022-10-13T10:42:04.332Z,101837.09
2022-10-13T10:44:37.159Z,101835.72
2022-10-13T10:47:26.185Z,101838.09
2022-10-13T10:50:05.459Z,101830.75
2022-10-13T10:52:59.427Z,101829.56
2022-10-13T10:55:59.531Z,101824.78
2022-10-13T10:58:38.543Z,101817.25
2022-10-13T11:01:11.342Z,101819.81
2022-10-13T11:04:08.786Z,101810.78
2022-10-13T11:06:36.981Z,101810.59
2022-10-13T11:09:06.441Z,101802.06
2022-10-13T11:11:37.554Z,101803.59
2022-10-13T11:14:07.368Z,101797.75
2022-10-13T11:16:35.179Z,101793.84
2022-10-13T11:19:06.319Z,101787.16
2022-10-13T11:21:58.131Z,101789.91
2022-10-13T11:24:33.551Z,101777.97
2022-10-13T11:27:09.315Z,101783.25
2022-10-13T11:29:45.685Z,101783.09
2022-10-13T11:32:27.576Z,101780.19
2022-10-13T11:35:06.103Z,101774.53
2022-10-13T11:38:06.073Z,101769.06
2022-10-13T11:41:06.100Z,101767.84
2022-10-13T11:43:45.179Z,101754.53
2022-10-13T11:46:17.351Z,101760.81
2022-10-13T11:49:05.350Z,101757.25
2022-10-13T11:51:45.615Z,101751.97
2022-10-13T11:54:22.175Z,101757.78
2022-10-13T11:56:51.245Z,101753.34
2022-10-13T11:59:39.711Z,101755.22
2022-10-13T12:02:11.437Z,101749.25
2022-10-13T12:04:44.162Z,101749.81
2022-10-13T12:07:15.352Z,101751.16
2022-10-13T12:09:52.204Z,101748.97
2022-10-13T12:12:21.095Z,101745.94
2022-10-13T12:14:51.710Z,101744.75
2022-10-13T12:17:23.626Z,101742.19
2022-10-13T12:19:51.106Z,101740.66
2022-10-13T12:22:17.802Z,101741.00
2022-10-13T12:24:56.963Z,101742.22
2022-10-13T12:27:23.477Z,101723.63
2022-10-13T12:29:50.030Z,101722.28
2022-10-13T12:32:30.053Z,101720.75
2022-10-13T12:34:56.925Z,101721.44
2022-10-13T12:37:29.351Z,101721.06
2022-10-13T12:39:56.991Z,101723.13
2022-10-13T12:42:31.111Z,101726.06
2022-10-13T12:45:01.399Z,101717.34
2022-10-13T12:47:49.107Z,101710.38
2022-10-13T12:50:28.039Z,101709.88
2022-10-13T12:53:00.268Z,101708.00
2022-10-13T12:55:26.768Z,101713.44
2022-10-13T12:57:53.414Z,101710.72
2022-10-13T13:00:20.384Z,101700.84
2022-10-13T13:02:52.534Z,101696.56
2022-10-13T13:05:51.633Z,101697.59
2022-10-13T13:08:23.896Z,101697.78
2022-10-13T13:10:58.432Z,101698.81
2022-10-13T13:13:25.358Z,101692.84
2022-10-13T13:15:52.147Z,101686.88
2022-10-13T13:18:39.535Z,101681.78
2022-10-13T13:21:12.443Z,101674.44
2022-10-13T13:23:39.283Z,101679.56
2022-10-13T13:26:20.052Z,101678.53
2022-10-13T13:28:49.370Z,101671.38
2022-10-13T13:31:18.386Z,101663.91
2022-10-13T13:33:45.896Z,101664.59
2022-10-13T13:36:18.536Z,101670.72
2022-10-13T13:38:45.367Z,101674.13
2022-10-13T13:41:12.402Z,101675.84
2022-10-13T13:43:39.693Z,101675.53
2022-10-13T13:46:07.383Z,101671.59
2022-10-13T13:48:34.102Z,101665.00
2022-10-13T13:51:00.793Z,101670.09
2022-10-13T13:53:27.307Z,101663.09
2022-10-13T13:55:53.924Z,101656.97
2022-10-13T13:58:20.831Z,101651.69
2022-10-13T14:00:47.542Z,101663.78
2022-10-13T14:03:18.541Z,101668.03
2022-10-13T14:05:45.996Z,101665.69
2022-10-13T14:08:12.950Z,101669.25
2022-10-13T14:10:40.502Z,101663.63
2022-10-13T14:13:07.400Z,101668.91
2022-10-13T14:15:34.257Z,101668.56
2022-10-13T14:18:00.769Z,101669.09
2022-10-13T14:20:27.331Z,101664.13
2022-10-13T14:22:53.951Z,101662.94
2022-10-13T14:25:20.581Z,101645.72
2022-10-13T14:27:47.125Z,101642.16
2022-10-13T14:30:14.102Z,101648.81
2022-10-13T14:32:40.805Z,101645.56
2022-10-13T14:35:07.670Z,101633.97
2022-10-13T14:37:34.615Z,101622.59
2022-10-13T14:40:01.710Z,101631.09
2022-10-13T14:42:28.358Z,101633.31
2022-10-13T14:44:54.872Z,101634.66
2022-10-13T14:47:21.679Z,101636.03
2022-10-13T14:49:48.478Z,101639.09
2022-10-13T14:52:14.994Z,101635.69
2022-10-13T14:54:44.839Z,101634.00
2022-10-13T14:57:15.917Z,101636.06
2022-10-13T14:59:43.047Z,101645.06
2022-10-13T15:02:13.304Z,101645.06
2022-10-13T15:04:39.908Z,101633.34
2022-10-13T15:07:06.483Z,101638.06
2022-10-13T15:09:45.415Z,101638.38
2022-10-13T15:12:19.739Z,101631.56
2022-10-13T15:14:46.442Z,101638.22
2022-10-13T15:17:12.933Z,101639.41
2022-10-13T15:19:39.444Z,101639.06
2022-10-13T15:22:05.989Z,101637.69
2022-10-13T15:24:32.535Z,101645.38
2022-10-13T15:26:59.060Z,101653.19
2022-10-13T15:29:25.654Z,101652.00
2022-10-13T15:31:52.204Z,101650.94
2022-10-13T15:34:18.688Z,101648.88
2022-10-13T15:36:45.468Z,101658.41
2022-10-13T15:39:12.043Z,101640.69
2022-10-13T15:41:38.549Z,101628.44
2022-10-13T15:44:05.222Z,101633.88
2022-10-13T15:46:31.801Z,101635.91
2022-10-13T15:48:59.943Z,101637.94
2022-10-13T15:51:27.063Z,101642.72
2022-10-13T15:53:55.254Z,101632.84
2022-10-13T15:56:21.813Z,101629.44
2022-10-13T15:58:48.565Z,101627.72
2022-10-13T16:01:15.208Z,101628.06
2022-10-13T16:03:42.161Z,101622.63
2022-10-13T16:06:10.644Z,101612.94
2022-10-13T16:08:38.128Z,101605.97
2022-10-13T16:11:13.405Z,101607.97
2022-10-13T16:13:40.414Z,101596.38
2022-10-13T16:16:07.359Z,101598.06
2022-10-13T16:18:37.956Z,101590.41
2022-10-13T16:21:17.431Z,101592.59
2022-10-13T16:23:45.147Z,101589.34
2022-10-13T16:26:11.788Z,101597.72
2022-10-13T16:28:38.862Z,101600.75
2022-10-13T16:31:14.067Z,101600.03
2022-10-13T16:33:41.631Z,101610.09
2022-10-13T16:36:10.483Z,101603.13
2022-10-13T16:38:37.253Z,101598.66
2022-10-13T16:41:05.380Z,101606.16
2022-10-13T16:43:32.177Z,101608.19
2022-10-13T16:46:00.988Z,101612.78
2022-10-13T16:48:27.977Z,101613.63
2022-10-13T16:50:54.580Z,101609.22
2022-10-13T16:53:21.260Z,101612.78
2022-10-13T16:55:47.875Z,101611.22
2022-10-13T16:58:14.528Z,101608.81
2022-10-13T17:00:41.483Z,101613.56
2022-10-13T17:03:11.755Z,101620.03
2022-10-13T17:05:38.259Z,101616.63
2022-10-13T17:08:05.026Z,101617.66
2022-10-13T17:10:31.535Z,101615.94
2022-10-13T17:12:58.051Z,101624.09
2022-10-13T17:15:24.814Z,101632.41
2022-10-13T17:17:51.481Z,101629.88
2022-10-13T17:20:18.104Z,101628.16
2022-10-13T17:22:44.665Z,101625.44
2022-10-13T17:25:11.192Z,101621.03
2022-10-13T17:27:37.724Z,101622.72
2022-10-13T17:30:04.779Z,101630.19
2022-10-13T17:32:31.336Z,101625.78
2022-10-13T17:34:57.867Z,101619.09
2022-10-13T17:37:24.500Z,101618.56
2022-10-13T17:39:51.087Z,101616.88
2022-10-13T17:42:17.683Z,101625.19
2022-10-13T17:44:44.204Z,101630.09
2022-10-13T17:47:10.909Z,101628.69
2022-10-13T17:49:37.523Z,101629.03
2022-10-13T17:52:04.176Z,101625.63
2022-10-13T17:54:30.732Z,101622.06
2022-10-13T17:56:57.435Z,101621.53
2022-10-13T17:59:23.941Z,101623.84
2022-10-13T18:01:50.544Z,101629.44
2022-10-13T18:04:18.730Z,101631.47
2022-10-13T18:06:45.882Z,101629.72
2022-10-13T18:09:14.865Z,101625.88
2022-10-13T18:11:45.628Z,101632.16
2022-10-13T18:14:15.550Z,101624.00
2022-10-13T18:16:43.252Z,101624.84
2022-10-13T18:19:09.871Z,101627.72
2022-10-13T18:21:36.430Z,101631.47
2022-10-13T18:24:03.776Z,101634.31
2022-10-13T18:26:37.656Z,101637.03
2022-10-13T18:29:05.952Z,101638.06
2022-10-13T18:31:34.244Z,101638.38
2022-10-13T18:34:03.590Z,101638.69
2022-10-13T18:36:31.493Z,101649.16
2022-10-13T18:39:06.289Z,101659.69
2022-10-13T18:41:34.171Z,101657.94
2022-10-13T18:44:00.753Z,101651.13
2022-10-13T18:46:27.409Z,101648.75
2022-10-13T18:48:53.992Z,101644.47
2022-10-13T18:51:20.850Z,101650.06
2022-10-13T18:53:48.955Z,101655.28
2022-10-13T18:56:17.184Z,101652.78
2022-10-13T18:58:43.985Z,101648.84
2022-10-13T19:01:12.894Z,101645.56
2022-10-13T19:03:40.815Z,101643.16
2022-10-13T19:06:08.569Z,101641.91
2022-10-13T19:08:35.667Z,101636.97
2022-10-13T19:11:10.899Z,101641.69
2022-10-13T19:13:37.500Z,101639.97
2022-10-13T19:16:04.456Z,101646.41
2022-10-13T19:18:31.276Z,101637.56
2022-10-13T19:20:57.825Z,101638.31
2022-10-13T19:23:24.400Z,101639.06
2022-10-13T19:25:51.519Z,101637.97
2022-10-13T19:28:18.647Z,101632.84
2022-10-13T19:30:45.457Z,101632.84
2022-10-13T19:33:13.151Z,101635.72
2022-10-13T19:35:41.416Z,101635.72
2022-10-13T19:38:08.445Z,101641.28
2022-10-13T19:40:40.067Z,101643.31
2022-10-13T19:43:09.286Z,101649.88
2022-10-13T19:45:35.983Z,101650.34
2022-10-13T19:48:02.548Z,101643.50
2022-10-13T19:50:29.089Z,101645.81
2022-10-13T19:52:55.632Z,101645.25
2022-10-13T19:55:22.539Z,101643.56
2022-10-13T19:57:49.114Z,101646.41
2022-10-13T20:00:16.050Z,101639.56
2022-10-13T20:02:42.865Z,101642.75
2022-10-13T20:05:09.467Z,101640.16
2022-10-13T20:07:36.133Z,101646.75
2022-10-13T20:10:02.749Z,101649.47
2022-10-13T20:12:29.648Z,101647.78
2022-10-13T20:14:56.283Z,101649.47
2022-10-13T20:17:23.350Z,101651.19
2022-10-13T20:19:49.981Z,101652.31
2022-10-13T20:22:16.495Z,101653.19
2022-10-13T20:24:44.785Z,101652.19
2022-10-13T20:27:11.520Z,101651.31
2022-10-13T20:29:38.053Z,101644.19
2022-10-13T20:32:04.799Z,101650.75
2022-10-13T20:34:31.490Z,101650.06
2022-10-13T20:36:58.031Z,101653.09
2022-10-13T20:39:24.558Z,101650.50
2022-10-13T20:41:51.101Z,101644.94
2022-10-13T20:44:17.641Z,101639.53
2022-10-13T20:46:44.206Z,101654.78
2022-10-13T20:49:12.268Z,101654.94
2022-10-13T20:51:40.636Z,101649.81
2022-10-13T20:54:07.878Z,101654.38
2022-10-13T20:56:34.726Z,101656.97
2022-10-13T20:59:05.799Z,101660.28
2022-10-13T21:01:32.678Z,101653.44
2022-10-13T21:03:59.511Z,101656.25
2022-10-13T21:06:26.457Z,101658.09
2022-10-13T21:08:53.455Z,101662.81
2022-10-13T21:11:21.785Z,101662.13
2022-10-13T21:13:48.932Z,101657.72
2022-10-13T21:16:23.690Z,101653.59
2022-10-13T21:18:51.952Z,101648.44
2022-10-13T21:21:21.319Z,101647.44
2022-10-13T21:23:50.855Z,101636.44
2022-10-13T21:26:21.391Z,101632.88
2022-10-13T21:28:49.470Z,101629.47
2022-10-13T21:31:16.874Z,101629.47
2022-10-13T21:33:43.780Z,101638.44
2022-10-13T21:36:13.274Z,101639.31
2022-10-13T21:38:40.294Z,101634.88
2022-10-13T21:41:08.025Z,101634.88
2022-10-13T21:43:34.594Z,101616.94
2022-10-13T21:46:20.624Z,101619.94
2022-10-13T21:48:48.470Z,101632.38
2022-10-13T21:51:16.968Z,101625.66
2022-10-13T21:53:43.814Z,101627.78
2022-10-13T21:56:11.761Z,101633.81
2022-10-13T21:58:38.453Z,101627.25
2022-10-13T22:01:06.058Z,101625.84
2022-10-13T22:03:33.209Z,101627.00
2022-10-13T22:06:07.046Z,101625.25
2022-10-13T22:08:38.541Z,101624.41
2022-10-13T22:11:07.652Z,101623.69
2022-10-13T22:13:34.986Z,101627.41
2022-10-13T22:16:06.583Z,101627.25
2022-10-13T22:18:33.124Z,101626.28
2022-10-13T22:21:07.528Z,101617.31
2022-10-13T22:23:34.679Z,101621.84
2022-10-13T22:26:01.212Z,101618.00
2022-10-13T22:28:27.947Z,101610.75
2022-10-13T22:30:54.530Z,101617.00
2022-10-13T22:33:21.124Z,101617.72
2022-10-13T22:35:47.693Z,101621.25
2022-10-13T22:38:14.532Z,101620.41
2022-10-13T22:40:41.767Z,101606.16
2022-10-13T22:43:08.643Z,101608.31
2022-10-13T22:45:35.264Z,101608.59
2022-10-13T22:48:02.242Z,101621.56
2022-10-13T22:50:29.007Z,101613.63
2022-10-13T22:52:55.562Z,101621.88
2022-10-13T22:55:22.212Z,101620.44
2022-10-13T22:57:48.689Z,101614.31
2022-10-13T23:00:16.045Z,101617.28
2022-10-13T23:02:42.544Z,101614.03
2022-10-13T23:05:09.277Z,101609.06
2022-10-13T23:07:35.768Z,101610.59
2022-10-13T23:10:02.309Z,101607.19
2022-10-13T23:12:28.868Z,101602.50
2022-10-13T23:14:55.401Z,101598.94
2022-10-13T23:17:22.284Z,101592.69
2022-10-13T23:19:48.970Z,101589.09
2022-10-13T23:22:15.553Z,101591.97
2022-10-13T23:24:42.326Z,101582.22
2022-10-13T23:27:08.814Z,101585.09
2022-10-13T23:29:35.376Z,101592.50
2022-10-13T23:32:04.200Z,101580.97
2022-10-13T23:34:34.065Z,101580.97
2022-10-13T23:37:00.816Z,101580.97
2022-10-13T23:39:27.468Z,101585.09
2022-10-13T23:41:56.171Z,101584.78
2022-10-13T23:44:22.742Z,101583.09
2022-10-13T23:46:49.248Z,101583.22
2022-10-13T23:49:18.622Z,101580.66
2022-10-13T23:51:45.205Z,101588.78
2022-10-13T23:54:11.716Z,101583.38
2022-10-13T23:56:38.952Z,101584.06
2022-10-13T23:59:05.924Z,101584.91
